createdAt,value
2018-12-07T00:01:37.741Z,10.50
2018-12-07T00:06:41.227Z,10.40
2018-12-07T00:11:44.763Z,10.50
2018-12-07T00:16:48.260Z,10.40
2018-12-07T00:21:51.766Z,10.50
2018-12-07T00:26:55.375Z,10.50
2018-12-07T00:31:58.903Z,10.50
2018-12-07T00:37:02.776Z,10.60
2018-12-07T00:42:06.271Z,10.50
2018-12-07T00:47:09.766Z,10.50
2018-12-07T00:52:13.267Z,10.50
2018-12-07T00:57:16.853Z,10.60
2018-12-07T01:02:20.559Z,10.70
2018-12-07T01:07:24.156Z,10.70
2018-12-07T01:12:27.914Z,10.60
2018-12-07T01:17:31.408Z,10.50
2018-12-07T01:22:35.046Z,10.60
2018-12-07T01:27:38.562Z,10.50
2018-12-07T01:32:42.167Z,10.50
2018-12-07T01:37:45.673Z,10.50
2018-12-07T01:42:49.522Z,10.50
2018-12-07T01:47:53.881Z,10.60
2018-12-07T01:52:58.358Z,10.60
2018-12-07T01:58:02.409Z,10.60
2018-12-07T02:03:06.929Z,10.60
2018-12-07T02:08:10.484Z,10.60
2018-12-07T02:13:14.120Z,10.60
2018-12-07T02:18:17.674Z,10.70
2018-12-07T02:23:21.302Z,10.70
2018-12-07T02:28:24.808Z,10.70
2018-12-07T02:33:28.513Z,10.70
2018-12-07T02:38:32.172Z,10.70
2018-12-07T02:43:35.684Z,10.70
2018-12-07T02:48:39.188Z,10.70
2018-12-07T02:53:42.887Z,10.70
2018-12-07T02:58:46.688Z,10.60
2018-12-07T03:03:50.208Z,10.60
2018-12-07T03:08:53.712Z,10.70
2018-12-07T03:13:57.247Z,10.80
2018-12-07T03:19:01.675Z,10.70
2018-12-07T03:24:05.602Z,10.70
2018-12-07T03:29:09.361Z,10.70
2018-12-07T03:34:13.006Z,10.70
2018-12-07T03:39:16.919Z,10.70
2018-12-07T03:44:20.933Z,10.70
2018-12-07T03:49:24.652Z,10.70
2018-12-07T03:54:28.837Z,10.70
2018-12-07T03:59:32.386Z,10.70
2018-12-07T04:04:35.902Z,10.80
2018-12-07T04:09:39.461Z,10.90
2018-12-07T04:14:43.185Z,10.90
2018-12-07T04:19:46.662Z,11.00
2018-12-07T04:24:50.280Z,11.00
2018-12-07T04:30:03.910Z,11.00
2018-12-07T04:35:07.587Z,11.00
2018-12-07T04:40:12.089Z,10.90
2018-12-07T04:45:15.558Z,10.90
2018-12-07T04:50:19.028Z,10.80
2018-12-07T05:02:57.214Z,10.60
2018-12-07T05:08:02.148Z,10.50
2018-12-07T05:13:05.916Z,10.50
2018-12-07T05:18:09.508Z,10.50
2018-12-07T05:23:13.418Z,10.40
2018-12-07T05:28:17.906Z,10.40
2018-12-07T05:33:21.767Z,10.40
2018-12-07T05:38:26.127Z,10.40
2018-12-07T05:43:30.694Z,10.40
2018-12-07T05:48:34.260Z,10.50
2018-12-07T05:53:38.001Z,10.60
2018-12-07T05:58:42.062Z,10.60
2018-12-07T06:03:45.782Z,10.60
2018-12-07T06:08:49.753Z,10.60
2018-12-07T06:13:54.592Z,10.60
2018-12-07T06:18:58.564Z,10.60
2018-12-07T06:24:03.064Z,10.60
2018-12-07T06:29:06.630Z,10.50
2018-12-07T06:34:10.300Z,10.50
2018-12-07T06:39:13.840Z,10.50
2018-12-07T06:44:18.495Z,10.50
2018-12-07T06:49:21.955Z,10.40
2018-12-07T06:54:25.536Z,10.40
2018-12-07T06:59:29.339Z,10.30
2018-12-07T07:04:33.471Z,10.30
2018-12-07T07:09:37.051Z,10.20
2018-12-07T07:14:40.837Z,10.20
2018-12-07T07:19:45.067Z,10.30
2018-12-07T07:24:49.066Z,10.30
2018-12-07T07:29:53.145Z,10.40
2018-12-07T07:34:56.768Z,10.40
2018-12-07T07:40:01.159Z,10.40
2018-12-07T07:45:05.603Z,10.40
2018-12-07T07:50:09.327Z,10.50
2018-12-07T07:55:13.043Z,10.50
2018-12-07T08:00:16.968Z,10.50
2018-12-07T08:05:20.885Z,10.60
2018-12-07T08:10:24.945Z,10.80
2018-12-07T08:15:29.044Z,11.00
2018-12-07T08:20:33.102Z,11.00
2018-12-07T08:25:37.563Z,11.10
2018-12-07T08:30:41.714Z,11.30
2018-12-07T08:35:45.164Z,11.50
2018-12-07T08:40:48.872Z,11.50
2018-12-07T08:45:52.363Z,11.50
2018-12-07T08:53:06.639Z,11.40
2018-12-07T08:58:10.113Z,11.40
2018-12-07T09:03:13.565Z,11.40
2018-12-07T09:08:17.227Z,11.40
2018-12-07T09:13:20.694Z,11.50
2018-12-07T09:18:24.180Z,11.50
2018-12-07T09:23:27.677Z,11.40
2018-12-07T09:28:31.287Z,11.30
2018-12-07T09:33:34.953Z,11.30
2018-12-07T09:38:38.821Z,11.30
2018-12-07T09:43:42.799Z,11.30
2018-12-07T09:48:47.559Z,11.30
2018-12-07T09:53:52.178Z,11.30
2018-12-07T09:58:56.206Z,11.30
2018-12-07T10:03:59.768Z,11.30
2018-12-07T10:09:06.110Z,11.30
2018-12-07T10:14:10.310Z,11.30
2018-12-07T10:19:14.004Z,11.40
2018-12-07T10:24:18.313Z,11.40
2018-12-07T10:29:22.296Z,11.50
2018-12-07T10:34:26.419Z,11.60
2018-12-07T10:39:30.444Z,11.80
2018-12-07T10:44:34.002Z,11.90
2018-12-07T10:49:37.574Z,11.80
2018-12-07T10:54:41.093Z,11.80
2018-12-07T10:59:44.588Z,11.80
2018-12-07T11:04:53.354Z,11.60
2018-12-07T11:10:02.036Z,11.60
2018-12-07T11:15:11.553Z,11.70
2018-12-07T11:20:20.752Z,11.70
2018-12-07T11:25:29.383Z,12.10
2018-12-07T11:31:38.228Z,12.50
2018-12-07T11:36:42.385Z,12.50
2018-12-07T11:41:47.111Z,12.60
2018-12-07T11:46:50.572Z,12.90
2018-12-07T11:51:54.036Z,12.90
2018-12-07T11:56:57.493Z,12.90
2018-12-07T12:02:01.548Z,12.60
2018-12-07T12:07:05.141Z,12.30
2018-12-07T12:12:08.714Z,11.90
2018-12-07T12:17:12.778Z,11.80
2018-12-07T12:22:16.376Z,11.80
2018-12-07T12:27:19.852Z,11.60
2018-12-07T12:32:23.860Z,11.60
2018-12-07T12:37:27.317Z,11.60
2018-12-07T12:42:31.977Z,11.50
2018-12-07T12:47:37.393Z,11.50
2018-12-07T12:52:41.036Z,11.30
2018-12-07T12:57:44.727Z,11.30
2018-12-07T13:02:48.397Z,11.20
2018-12-07T13:07:52.086Z,11.10
2018-12-07T13:12:55.609Z,11.00
2018-12-07T13:17:59.332Z,10.90
2018-12-07T13:23:02.815Z,10.80
2018-12-07T13:28:06.337Z,10.70
2018-12-07T13:33:09.830Z,10.70
2018-12-07T13:38:13.579Z,10.60
2018-12-07T13:43:17.652Z,10.60
2018-12-07T13:48:22.186Z,10.60
2018-12-07T13:53:25.889Z,10.60
2018-12-07T13:58:30.988Z,10.80
2018-12-07T14:03:35.017Z,11.20
2018-12-07T14:08:39.038Z,11.60
2018-12-07T14:13:43.537Z,11.70
2018-12-07T14:18:47.213Z,11.90
2018-12-07T14:23:50.973Z,12.10
2018-12-07T14:28:54.610Z,12.30
2018-12-07T14:33:58.616Z,11.90
2018-12-07T14:39:05.818Z,11.50
2018-12-07T14:44:09.649Z,11.00
2018-12-07T14:49:16.128Z,10.80
2018-12-07T14:54:20.655Z,10.50
2018-12-07T14:59:25.683Z,10.30
2018-12-07T15:04:29.589Z,10.20
2018-12-07T15:09:35.330Z,10.10
2018-12-07T15:14:39.423Z,9.90
2018-12-07T15:19:43.857Z,9.80
2018-12-07T15:24:48.550Z,9.80
2018-12-07T15:29:52.551Z,9.90
2018-12-07T15:34:56.416Z,9.90
2018-12-07T15:40:00.348Z,9.90
2018-12-07T15:45:13.372Z,9.90
2018-12-07T15:50:25.060Z,10.00
2018-12-07T15:55:26.627Z,10.00
2018-12-07T16:00:31.721Z,10.00
2018-12-07T16:05:35.935Z,10.00
2018-12-07T16:10:40.658Z,9.90
2018-12-07T16:15:46.128Z,9.90
2018-12-07T16:20:49.846Z,10.00
2018-12-07T16:25:54.688Z,9.80
2018-12-07T16:30:58.815Z,9.80
2018-12-07T16:36:03.487Z,9.90
2018-12-07T16:41:07.782Z,10.00
2018-12-07T16:46:12.196Z,10.00
2018-12-07T16:51:17.510Z,10.00
2018-12-07T16:56:22.949Z,10.10
2018-12-07T17:01:31.092Z,10.00
2018-12-07T17:06:35.277Z,10.00
2018-12-07T17:11:41.357Z,10.00
2018-12-07T17:16:45.231Z,10.00
2018-12-07T17:21:49.356Z,10.00
2018-12-07T17:26:53.686Z,10.10
2018-12-07T17:32:01.968Z,10.10
2018-12-07T17:37:07.249Z,10.10
2018-12-07T17:42:12.003Z,10.10
2018-12-07T17:47:15.722Z,10.10
2018-12-07T17:52:20.444Z,10.10
2018-12-07T17:57:24.856Z,10.00
2018-12-07T18:02:28.952Z,10.00
2018-12-07T18:07:34.190Z,9.90
2018-12-07T18:12:38.193Z,9.70
2018-12-07T18:17:42.850Z,9.60
2018-12-07T18:22:47.078Z,9.50
2018-12-07T18:27:51.326Z,9.50
2018-12-07T18:32:55.289Z,9.40
2018-12-07T18:37:59.803Z,9.50
2018-12-07T18:43:03.959Z,9.60
2018-12-07T18:48:08.233Z,9.60
2018-12-07T18:53:13.056Z,9.60
2018-12-07T18:58:24.759Z,9.70
2018-12-07T19:03:29.619Z,9.70
2018-12-07T19:08:33.800Z,9.70
2018-12-07T19:13:38.331Z,9.70
2018-12-07T19:18:42.157Z,9.60
2018-12-07T19:23:46.540Z,9.50
2018-12-07T19:28:50.997Z,9.40
2018-12-07T19:33:55.501Z,9.30
2018-12-07T19:38:59.593Z,9.10
2018-12-07T19:44:19.343Z,9.10
2018-12-07T19:49:24.006Z,9.20
2018-12-07T19:54:27.784Z,9.10
2018-12-07T19:59:31.644Z,9.10
2018-12-07T20:04:38.495Z,9.20
2018-12-07T20:09:45.093Z,9.20
2018-12-07T20:14:52.550Z,9.20
2018-12-07T20:19:59.943Z,9.10
2018-12-07T20:25:05.263Z,9.10
2018-12-07T20:30:09.310Z,9.10
2018-12-07T20:35:13.911Z,9.00
2018-12-07T20:40:18.707Z,8.80
2018-12-07T20:45:23.057Z,8.60
2018-12-07T20:50:26.999Z,8.40
2018-12-07T20:55:31.299Z,7.70
2018-12-07T21:00:35.633Z,7.30
2018-12-07T21:12:11.285Z,7.10
2018-12-07T21:17:22.839Z,6.90
2018-12-07T21:22:26.842Z,6.50
2018-12-07T21:27:30.783Z,6.30
2018-12-07T21:32:35.340Z,6.20
2018-12-07T21:37:39.682Z,6.40
2018-12-07T21:42:43.502Z,6.30
2018-12-07T21:48:54.648Z,6.40
2018-12-07T21:53:58.731Z,6.40
2018-12-07T21:59:02.458Z,6.40
2018-12-07T22:04:06.372Z,6.40
2018-12-07T22:09:10.251Z,6.50
2018-12-07T22:14:13.846Z,6.50
2018-12-07T22:19:17.490Z,6.50
2018-12-07T22:24:23.091Z,6.50
2018-12-07T22:29:27.598Z,6.50
2018-12-07T22:34:32.038Z,6.30
2018-12-07T22:39:36.100Z,6.30
2018-12-07T22:44:39.915Z,6.30
2018-12-07T22:49:43.514Z,6.20
2018-12-07T22:54:46.995Z,6.10
2018-12-07T22:59:51.158Z,6.00
2018-12-07T23:04:55.547Z,6.10
2018-12-07T23:10:00.211Z,6.10
2018-12-07T23:15:11.982Z,6.00
2018-12-07T23:20:15.838Z,6.00
2018-12-07T23:25:19.514Z,5.80
2018-12-07T23:30:23.039Z,5.80
2018-12-07T23:35:26.553Z,5.80
2018-12-07T23:40:30.488Z,5.70
2018-12-07T23:45:33.945Z,5.60
2018-12-07T23:58:11.245Z,5.50
